Flight Track Log - Related Links

Times and Time Zones

All times are in EST time to prevent confusion due to time zone crossing. See the EJA922 flight status page for this flight to view local times or setup timezone preferences in your user account.

Time Position Orientation Groundspeed Altitude Reporting Facility
EST Latitude Longitude Course Direction KTS MPH feet Rate Location/Type
Fri 05:03:44 PM 37.4000 -121.9667 180° South 195 224 4,000  Level Northern Cal TRACON
Fri 05:04:44 PM 37.4333 -121.9333 38° Northeast 235 270 5,000 600 Climbing Northern Cal TRACON
Fri 05:05:44 PM 37.4000 -121.8833 130° Southeast 221 254 5,200 1,750 Climbing Northern Cal TRACON
Fri 05:06:44 PM 37.3667 -121.8167 122° Southeast 249 287 8,500 3,250 Climbing Northern Cal TRACON
Fri 05:07:44 PM 37.3000 -121.7500 141° Southeast 322 371 11,700 2,630 Climbing Northern Cal TRACON
Fri 05:09:00 PM 36.7438 -121.5833 180° South  Level FlightAware Approximate
Fri 05:09:10 PM 37.1775 -121.6586 149° Southeast 361 415 14,900  Level Oakland Center
Fri 05:10:12 PM 37.0842 -121.5947 151° Southeast 389 448 16,300 1,403 Climbing Oakland Center
Fri 05:11:14 PM 36.9747 -121.5247 153° Southeast 427 491 17,800 1,512 Climbing Oakland Center
Fri 05:12:15 PM 36.8494 -121.4292 149° Southeast 437 503 19,400 1,512 Climbing Oakland Center
Fri 05:13:17 PM 36.7333 -121.3614 155° Southeast 454 522 20,900 1,415 Climbing Oakland Center
Fri 05:14:18 PM 36.6203 -121.2936 154° Southeast 453 521 22,300 1,024 Climbing Oakland Center
Fri 05:15:20 PM 36.5050 -121.2247 154° Southeast 456 525 23,000 339 Climbing Oakland Center
Fri 05:16:22 PM 36.3858 -121.1539 154° Southeast 469 540 23,000  Level Oakland Center
Fri 05:17:23 PM 36.2656 -121.0842 155° Southeast 475 547 23,000  Level Oakland Center
Fri 05:18:25 PM 36.1456 -121.0139 155° Southeast 476 548 23,000  Level Oakland Center
Fri 05:19:26 PM 36.0000 -120.9289 155° Southeast 481 554 23,000  Level Oakland Center
Fri 05:20:28 PM 35.8783 -120.8586 155° Southeast 483 556 23,000  Level Oakland Center
Fri 05:21:30 PM 35.7569 -120.7867 154° Southeast 484 557 23,000  Level Oakland Center
Fri 05:22:31 PM 35.6342 -120.7161 155° Southeast 488 562 23,000  Level Oakland Center
Fri 05:23:33 PM 35.5131 -120.6458 155° Southeast 486 559 23,000 -144 Level Oakland Center
Fri 05:24:36 PM 35.3844 -120.5728 155° Southeast 485 558 22,700 -1,344 Descending Los Angeles Center
Fri 05:25:38 PM 35.2650 -120.5044 155° Southeast 474 545 20,200 -2,323 Descending Los Angeles Center
Fri 05:26:40 PM 35.1519 -120.4411 155° Southeast 447 514 17,900 -2,371 Descending Los Angeles Center
Fri 05:27:42 PM 35.0231 -120.3675 155° Southeast 426 490 15,300 -2,274 Descending Los Angeles Center
Fri 05:28:44 PM 34.9167 -120.3081 155° Southeast 419 482 13,200 -2,037 Descending Los Angeles Center
Fri 05:29:31 PM 34.8431 -120.2656 155° Southeast 379 436 11,600 -1,839 Descending Los Angeles Center
Fri 05:29:46 PM 34.8219 -120.2547 157° South 370 426 11,300 -1,481 Descending Los Angeles Center
Fri 05:30:48 PM 34.7378 -120.2081 156° South 338 389 9,700 -1,688 Descending Los Angeles Center
Fri 05:30:50 PM 34.7281 -120.2031 157° South 319 367 9,500 -737 Descending Los Angeles Center
Fri 05:31:45 PM 34.6614 -120.1642 154° Southeast 302 348 9,000 -492 Descending Los Angeles Center
Fri 05:31:51 PM 34.6619 -120.1664 287° West 304 350 9,000 -1,545 Level Los Angeles Center
Fri 05:32:51 PM 34.5778 -120.1181 155° Southeast 292 336 7,300 -1,645 Descending Los Angeles Center
Fri 05:32:53 PM 34.5864 -120.1228 336° Northwest 291 335 7,300 -1,180 Level Los Angeles Center
Fri 05:33:52 PM 34.5050 -120.0917 163° South 273 314 6,100 -1,065 Descending Los Angeles Center
Fri 05:33:55 PM 34.5156 -120.0886 13° North 276 318 6,200 -197 Climbing Los Angeles Center
Fri 05:34:53 PM 34.4408 -120.0444 154° Southeast 258 297 5,900 -194 Descending Los Angeles Center
Fri 05:34:57 PM 34.4458 -120.0497 319° Northwest 264 304 6,000 -1,091 Climbing Los Angeles Center
Fri 05:35:59 PM 34.3925 -119.9981 141° Southeast 250 288 4,700 -1,429 Descending Los Angeles Center
Fri 05:36:00 PM 34.3839 -119.9925 152° Southeast 246 283 4,500 -689 Descending Los Angeles Center
Fri 05:37:00 PM 34.3531 -119.9217 118° Southeast 235 270 4,000 -492 Descending Los Angeles Center
Fri 05:37:01 PM 34.3528 -119.9189 97° East 243 280 4,000 109 Level Los Angeles Center
Fri 05:37:55 PM 34.3456 -119.8589 98° East 214 246 4,100 97 Climbing Los Angeles Center
Fri 05:38:03 PM 34.3447 -119.8475 95° East 222 255 4,100 -100 Level Los Angeles Center
Fri 05:38:55 PM 34.3486 -119.7850 86° East 213 245 4,000 -97 Descending Los Angeles Center
Fri 05:39:05 PM 34.3489 -119.7778 87° East 213 245 4,000 -1,200 Level Los Angeles Center
Fri 05:39:50 PM 34.3842 -119.7603 22° Northeast 181 208 2,900 -1,238 Descending Los Angeles Center
Fri 05:40:08 PM 34.3947 -119.7561 18° North 189 217 2,700 -1,075 Descending Los Angeles Center
Fri 05:40:57 PM 34.4253 -119.7706 339° North 142 163 1,700 -1,161 Descending Los Angeles Center
Fri 05:41:10 PM 34.4283 -119.7714 347° North 162 186 1,500 -1,250 Descending Los Angeles Center
Fri 05:41:45 PM 34.4289 -119.8058 271° West 135 155 700 -1,065 Descending Los Angeles Center
Fri 05:42:12 PM 34.4328 -119.8147 298° West 139 160 400 -404 Descending Los Angeles Center
Fri 05:43:14 PM 34.4497 -119.8542 298° West 130 150 100 -290 Descending Los Angeles Center

Login

Don't have an account? Register now (free) for customized features, flight alerts, and more!